createdAt,value
2022-12-11T00:01:32.317Z,97612.50
2022-12-11T00:03:58.727Z,97611.66
2022-12-11T00:06:25.164Z,97614.72
2022-12-11T00:08:53.953Z,97610.69
2022-12-11T00:11:22.346Z,97614.56
2022-12-11T00:13:48.826Z,97621.31
2022-12-11T00:16:15.627Z,97622.56
2022-12-11T00:18:42.435Z,97620.34
2022-12-11T00:21:12.465Z,97622.72
2022-12-11T00:23:39.147Z,97618.81
2022-12-11T00:26:07.817Z,97627.72
2022-12-11T00:28:34.271Z,97619.81
2022-12-11T00:31:07.320Z,97629.94
2022-12-11T00:33:34.263Z,97624.41
2022-12-11T00:36:01.062Z,97626.16
2022-12-11T00:38:27.537Z,97627.63
2022-12-11T00:40:58.660Z,97630.59
2022-12-11T00:43:25.039Z,97625.28
2022-12-11T00:45:51.458Z,97634.09
2022-12-11T00:48:17.833Z,97635.84
2022-12-11T00:50:44.270Z,97628.19
2022-12-11T00:53:10.720Z,97626.72
2022-12-11T00:55:39.857Z,97624.22
2022-12-11T00:58:06.954Z,97633.19
2022-12-11T01:00:33.721Z,97629.88
2022-12-11T01:03:00.185Z,97630.69
2022-12-11T01:05:26.673Z,97625.72
2022-12-11T01:07:53.113Z,97634.28
2022-12-11T01:10:26.004Z,97634.19
2022-12-11T01:12:58.168Z,97631.69
2022-12-11T01:15:27.883Z,97628.25
2022-12-11T01:17:54.671Z,97629.22
2022-12-11T01:20:23.087Z,97632.94
2022-12-11T01:22:52.797Z,97626.47
2022-12-11T01:25:19.526Z,97627.25
2022-12-11T01:27:45.902Z,97633.00
2022-12-11T01:30:14.165Z,97633.72
2022-12-11T01:32:40.540Z,97629.34
2022-12-11T01:35:07.898Z,97641.06
2022-12-11T01:37:34.425Z,97636.41
2022-12-11T01:40:01.808Z,97632.47
2022-12-11T01:42:29.500Z,97635.22
2022-12-11T01:45:14.611Z,97638.72
2022-12-11T01:47:41.022Z,97646.22
2022-12-11T01:50:07.887Z,97641.47
2022-12-11T01:52:34.411Z,97646.66
2022-12-11T01:55:01.411Z,97646.88
2022-12-11T01:57:27.791Z,97638.81
2022-12-11T01:59:54.184Z,97638.56
2022-12-11T02:02:26.022Z,97634.28
2022-12-11T02:04:52.425Z,97640.75
2022-12-11T02:07:18.821Z,97638.94
2022-12-11T02:09:47.426Z,97643.19
2022-12-11T02:12:24.607Z,97643.72
2022-12-11T02:15:06.094Z,97635.13
2022-12-11T02:17:44.136Z,97637.38
2022-12-11T02:20:42.008Z,97634.28
2022-12-11T02:23:40.958Z,97635.69
2022-12-11T02:26:22.644Z,97630.19
2022-12-11T02:28:53.762Z,97632.47
2022-12-11T02:31:45.159Z,97631.66
2022-12-11T02:34:18.064Z,97633.69
2022-12-11T02:36:51.304Z,97628.72
2022-12-11T02:39:18.855Z,97627.50
2022-12-11T02:41:50.529Z,97623.84
2022-12-11T02:44:21.443Z,97631.03
2022-12-11T02:46:48.090Z,97622.25
2022-12-11T02:49:15.261Z,97631.53
2022-12-11T02:51:43.230Z,97631.09
2022-12-11T02:54:16.027Z,97624.63
2022-12-11T02:56:47.110Z,97624.13
2022-12-11T02:59:23.785Z,97628.13
2022-12-11T03:01:50.577Z,97622.38
2022-12-11T03:04:17.425Z,97616.97
2022-12-11T03:06:49.372Z,97617.69
2022-12-11T03:09:15.785Z,97623.88
2022-12-11T03:11:42.155Z,97622.69
2022-12-11T03:14:08.841Z,97628.69
2022-12-11T03:16:42.835Z,97629.63
2022-12-11T03:19:30.507Z,97619.69
2022-12-11T03:22:09.536Z,97623.44
2022-12-11T03:24:43.963Z,97628.63
2022-12-11T03:27:19.902Z,97624.63
2022-12-11T03:30:00.442Z,97624.22
2022-12-11T03:32:31.233Z,97624.13
2022-12-11T03:35:05.307Z,97627.91
2022-12-11T03:37:36.430Z,97627.91
2022-12-11T03:40:09.262Z,97631.34
2022-12-11T03:42:37.418Z,97629.88
2022-12-11T03:45:05.738Z,97629.44
2022-12-11T03:47:33.015Z,97626.22
2022-12-11T03:50:00.130Z,97628.69
2022-12-11T03:52:29.071Z,97631.66
2022-12-11T03:54:59.377Z,97627.69
2022-12-11T03:57:30.408Z,97621.44
2022-12-11T03:59:57.683Z,97617.00
2022-12-11T04:02:24.048Z,97625.97
2022-12-11T04:04:50.474Z,97622.97
2022-12-11T04:07:16.910Z,97625.69
2022-12-11T04:09:43.317Z,97625.91
2022-12-11T04:12:09.711Z,97623.94
2022-12-11T04:14:54.565Z,97618.16
2022-12-11T04:17:39.477Z,97626.63
2022-12-11T04:20:25.319Z,97635.38
2022-12-11T04:23:10.159Z,97642.13
2022-12-11T04:25:36.611Z,97642.84
2022-12-11T04:28:03.007Z,97637.38
2022-12-11T04:30:33.890Z,97641.13
2022-12-11T04:33:00.931Z,97632.91
2022-12-11T04:35:27.509Z,97637.16
2022-12-11T04:37:53.943Z,97638.16
2022-12-11T04:40:20.716Z,97631.44
2022-12-11T04:42:47.440Z,97627.81
2022-12-11T04:45:14.244Z,97613.06
2022-12-11T04:47:41.176Z,97621.75
2022-12-11T04:50:10.520Z,97616.50
2022-12-11T04:52:36.923Z,97609.59
2022-12-11T04:55:05.425Z,97614.34
2022-12-11T04:57:31.788Z,97618.31
2022-12-11T04:59:58.161Z,97612.13
2022-12-11T05:02:24.574Z,97609.91
2022-12-11T05:04:50.962Z,97612.38
2022-12-11T05:07:17.324Z,97601.88
2022-12-11T05:09:43.724Z,97600.16
2022-12-11T05:12:10.158Z,97604.38
2022-12-11T05:14:36.531Z,97603.13
2022-12-11T05:17:02.888Z,97607.16
2022-12-11T05:19:29.316Z,97611.59
2022-12-11T05:21:55.721Z,97599.88
2022-12-11T05:24:22.094Z,97599.41
2022-12-11T05:26:48.460Z,97596.66
2022-12-11T05:29:14.844Z,97601.63
2022-12-11T05:31:41.581Z,97602.13
2022-12-11T05:34:08.137Z,97600.13
2022-12-11T05:36:34.857Z,97593.59
2022-12-11T05:39:03.075Z,97595.84
2022-12-11T05:41:31.112Z,97596.34
2022-12-11T05:43:57.611Z,97598.81
2022-12-11T05:46:26.827Z,97598.56
2022-12-11T05:49:02.044Z,97594.59
2022-12-11T05:51:29.539Z,97591.44
2022-12-11T05:53:57.248Z,97587.19
2022-12-11T05:56:26.486Z,97584.63
2022-12-11T05:58:53.682Z,97583.44
2022-12-11T06:01:25.916Z,97581.97
2022-12-11T06:03:54.277Z,97583.44
2022-12-11T06:06:21.056Z,97581.97
2022-12-11T06:08:51.149Z,97585.94
2022-12-11T06:11:23.621Z,97587.69
2022-12-11T06:13:50.696Z,97583.72
2022-12-11T06:16:17.163Z,97582.22
2022-12-11T06:18:44.990Z,97577.75
2022-12-11T06:21:20.531Z,97587.88
2022-12-11T06:23:48.379Z,97588.69
2022-12-11T06:26:16.810Z,97588.25
2022-12-11T06:28:43.584Z,97585.25
2022-12-11T06:31:10.086Z,97590.75
2022-12-11T06:33:37.108Z,97584.03
2022-12-11T06:36:15.918Z,97587.00
2022-12-11T06:38:42.712Z,97590.94
2022-12-11T06:41:09.377Z,97595.16
2022-12-11T06:43:37.819Z,97590.69
2022-12-11T06:46:13.520Z,97593.22
2022-12-11T06:48:42.124Z,97599.41
2022-12-11T06:51:10.984Z,97591.44
2022-12-11T06:53:37.354Z,97590.38
2022-12-11T06:56:12.431Z,97594.91
2022-12-11T06:58:39.599Z,97591.47
2022-12-11T07:01:15.167Z,97596.91
2022-12-11T07:03:41.702Z,97599.88
2022-12-11T07:06:08.171Z,97599.63
2022-12-11T07:08:34.914Z,97598.66
2022-12-11T07:11:09.696Z,97601.44
2022-12-11T07:13:36.384Z,97604.09
2022-12-11T07:16:04.630Z,97602.16
2022-12-11T07:18:34.485Z,97605.13
2022-12-11T07:21:00.911Z,97604.16
2022-12-11T07:23:28.768Z,97606.63
2022-12-11T07:25:55.846Z,97609.09
2022-12-11T07:28:22.558Z,97614.53
2022-12-11T07:30:49.283Z,97616.81
2022-12-11T07:33:15.981Z,97609.09
2022-12-11T07:35:42.365Z,97608.34
2022-12-11T07:38:08.776Z,97616.81
2022-12-11T07:40:35.170Z,97607.59
2022-12-11T07:43:01.580Z,97614.50
2022-12-11T07:45:28.163Z,97616.50
2022-12-11T07:47:54.616Z,97621.78
2022-12-11T07:50:21.020Z,97621.06
2022-12-11T07:52:47.356Z,97624.84
2022-12-11T07:55:13.897Z,97622.59
2022-12-11T07:57:40.611Z,97622.84
2022-12-11T08:00:07.707Z,97616.91
2022-12-11T08:02:37.212Z,97619.84
2022-12-11T08:05:04.547Z,97626.31
2022-12-11T08:07:30.987Z,97632.50
2022-12-11T08:09:57.374Z,97635.19
2022-12-11T08:12:23.756Z,97629.75
2022-12-11T08:14:50.151Z,97629.56
2022-12-11T08:17:16.533Z,97622.16
2022-12-11T08:19:42.958Z,97621.13
2022-12-11T08:22:09.397Z,97623.63
2022-12-11T08:24:35.896Z,97622.84
2022-12-11T08:27:02.307Z,97623.63
2022-12-11T08:29:28.718Z,97621.16
2022-12-11T08:31:55.354Z,97627.88
2022-12-11T08:34:21.746Z,97617.16
2022-12-11T08:36:48.167Z,97622.16
2022-12-11T08:39:14.877Z,97619.94
2022-12-11T08:41:41.849Z,97621.13
2022-12-11T08:44:16.374Z,97618.88
2022-12-11T08:46:43.582Z,97615.66
2022-12-11T08:49:10.356Z,97610.66
2022-12-11T08:51:36.919Z,97607.41
2022-12-11T08:54:03.561Z,97616.88
2022-12-11T08:56:31.151Z,97613.34
2022-12-11T08:58:59.793Z,97615.66
2022-12-11T09:01:27.400Z,97615.19
2022-12-11T09:03:54.549Z,97618.69
2022-12-11T09:06:23.308Z,97618.44
2022-12-11T09:08:52.880Z,97616.00
2022-12-11T09:11:25.987Z,97609.03
2022-12-11T09:13:52.898Z,97610.03
2022-12-11T09:16:21.893Z,97610.28
2022-12-11T09:18:50.633Z,97611.50
2022-12-11T09:21:20.532Z,97617.75
2022-12-11T09:23:47.361Z,97618.69
2022-12-11T09:26:16.872Z,97614.94
2022-12-11T09:28:46.733Z,97615.47
2022-12-11T09:31:19.492Z,97619.72
2022-12-11T09:33:46.447Z,97619.22
2022-12-11T09:36:13.376Z,97621.13
2022-12-11T09:38:40.062Z,97612.66
2022-12-11T09:41:35.677Z,97617.63
2022-12-11T09:44:11.320Z,97609.28
2022-12-11T09:46:39.006Z,97618.22
2022-12-11T09:49:17.349Z,97611.91
2022-12-11T09:51:51.686Z,97616.28
2022-12-11T09:54:18.269Z,97612.50
2022-12-11T09:57:09.258Z,97609.44
2022-12-11T10:00:05.540Z,97613.59
2022-12-11T10:02:44.695Z,97606.06
2022-12-11T10:05:22.429Z,97615.50
2022-12-11T10:08:01.091Z,97610.50
2022-12-11T10:10:54.962Z,97603.50
2022-12-11T10:13:45.496Z,97602.78
2022-12-11T10:16:24.573Z,97590.06
2022-12-11T10:18:51.815Z,97586.09
2022-12-11T10:21:19.310Z,97593.56
2022-12-11T10:24:00.918Z,97593.84
2022-12-11T10:26:29.593Z,97584.72
2022-12-11T10:29:00.638Z,97578.28
2022-12-11T10:31:39.736Z,97584.84
2022-12-11T10:34:13.684Z,97582.09
2022-12-11T10:36:41.865Z,97582.09
2022-12-11T10:39:17.645Z,97573.81
2022-12-11T10:41:46.825Z,97576.31
2022-12-11T10:44:19.489Z,97574.53
2022-12-11T10:46:47.938Z,97578.22
2022-12-11T10:49:30.152Z,97573.47
2022-12-11T10:51:57.612Z,97576.47
2022-12-11T10:54:24.812Z,97574.69
2022-12-11T10:56:51.638Z,97572.69
2022-12-11T10:59:25.876Z,97568.69
2022-12-11T11:01:53.047Z,97566.41
2022-12-11T11:04:27.523Z,97558.97
2022-12-11T11:07:21.079Z,97550.00
2022-12-11T11:09:47.870Z,97541.97
2022-12-11T11:12:39.140Z,97542.50
2022-12-11T11:15:14.393Z,97541.75
2022-12-11T11:17:54.669Z,97535.78
2022-12-11T11:20:25.556Z,97541.75
2022-12-11T11:22:54.768Z,97529.00
2022-12-11T11:25:24.035Z,97532.94
2022-12-11T11:28:03.626Z,97536.13
2022-12-11T11:30:39.575Z,97537.81
2022-12-11T11:33:20.742Z,97541.09
2022-12-11T11:35:58.410Z,97536.38
2022-12-11T11:38:37.688Z,97534.84
2022-12-11T11:41:15.261Z,97535.25
2022-12-11T11:43:55.312Z,97535.47
2022-12-11T11:46:30.141Z,97526.25
2022-12-11T11:49:24.457Z,97520.88
2022-12-11T11:52:15.937Z,97517.97
2022-12-11T11:55:02.117Z,97513.97
2022-12-11T11:57:47.606Z,97509.91
2022-12-11T12:00:20.681Z,97513.25
2022-12-11T12:02:50.761Z,97507.75
2022-12-11T12:05:25.537Z,97495.78
2022-12-11T12:08:11.220Z,97494.81
2022-12-11T12:10:52.098Z,97493.72
2022-12-11T12:13:49.231Z,97488.66
2022-12-11T12:19:42.866Z,97483.00
2022-12-11T12:22:42.132Z,97496.03
2022-12-11T12:25:31.725Z,97502.53
2022-12-11T12:28:21.963Z,97499.03
2022-12-11T12:31:07.164Z,97495.53
2022-12-11T12:33:49.365Z,97501.59
2022-12-11T12:36:22.553Z,97494.03
2022-12-11T12:38:58.222Z,97501.00
2022-12-11T12:41:49.211Z,97505.25
2022-12-11T12:44:18.230Z,97495.94
2022-12-11T12:47:13.087Z,97499.38
2022-12-11T12:49:45.571Z,97493.63
2022-12-11T12:52:20.877Z,97495.53
2022-12-11T12:55:10.046Z,97493.00
2022-12-11T12:57:38.424Z,97487.38
2022-12-11T13:00:12.624Z,97481.91
2022-12-11T13:02:53.679Z,97474.94
2022-12-11T13:05:26.924Z,97485.19
2022-12-11T13:07:57.203Z,97480.50
2022-12-11T13:10:46.931Z,97478.25
2022-12-11T13:13:33.791Z,97477.75
2022-12-11T13:16:20.165Z,97483.53
2022-12-11T13:18:48.394Z,97478.81
2022-12-11T13:21:34.931Z,97474.31
2022-12-11T13:24:17.202Z,97467.66
2022-12-11T13:26:43.841Z,97471.66
2022-12-11T13:29:29.976Z,97476.63
2022-12-11T13:32:04.954Z,97471.09
2022-12-11T13:34:33.566Z,97471.03
2022-12-11T13:37:02.521Z,97473.31
2022-12-11T13:39:39.028Z,97476.00
2022-12-11T13:42:23.678Z,97480.09
2022-12-11T13:44:51.387Z,97474.84
2022-12-11T13:47:19.331Z,97469.34
2022-12-11T13:49:49.959Z,97462.13
2022-12-11T13:52:25.732Z,97477.63
2022-12-11T13:54:53.742Z,97472.22
2022-12-11T13:57:23.350Z,97476.19
2022-12-11T13:59:55.855Z,97485.13
2022-12-11T14:02:39.694Z,97478.63
2022-12-11T14:05:10.102Z,97491.34
2022-12-11T14:07:41.395Z,97484.09
2022-12-11T14:10:16.373Z,97481.84
2022-12-11T14:12:48.629Z,97477.16
2022-12-11T14:15:15.700Z,97484.66
2022-12-11T14:17:48.480Z,97484.88
2022-12-11T14:20:20.877Z,97486.38
2022-12-11T14:22:47.465Z,97482.69
2022-12-11T14:25:27.122Z,97493.66
2022-12-11T14:27:56.493Z,97488.88
2022-12-11T14:30:28.882Z,97499.59
2022-12-11T14:32:59.011Z,97500.56
2022-12-11T14:35:32.832Z,97502.28
2022-12-11T14:38:07.262Z,97506.81
2022-12-11T14:40:41.266Z,97507.31
2022-12-11T14:43:13.343Z,97506.38
2022-12-11T14:45:46.701Z,97496.97
2022-12-11T14:48:28.176Z,97497.22
2022-12-11T14:50:59.732Z,97499.50
2022-12-11T14:53:31.165Z,97497.25
2022-12-11T14:56:02.730Z,97502.22
2022-12-11T14:58:29.978Z,97499.50
2022-12-11T15:01:05.914Z,97502.22
2022-12-11T15:03:38.157Z,97500.97
2022-12-11T15:06:25.913Z,97498.25
2022-12-11T15:08:52.320Z,97503.47
2022-12-11T15:11:19.081Z,97496.28
2022-12-11T15:13:53.144Z,97496.28
2022-12-11T15:16:21.502Z,97504.47
2022-12-11T15:18:50.448Z,97516.63
2022-12-11T15:21:17.993Z,97508.47
2022-12-11T15:23:52.282Z,97502.78
2022-12-11T15:26:20.995Z,97511.22
2022-12-11T15:28:47.632Z,97506.50
2022-12-11T15:31:29.657Z,97509.97
2022-12-11T15:33:56.297Z,97504.72
2022-12-11T15:36:33.771Z,97493.78
2022-12-11T15:39:00.941Z,97501.03
2022-12-11T15:41:28.548Z,97499.53
2022-12-11T15:43:58.950Z,97501.78
2022-12-11T15:46:26.081Z,97501.78
2022-12-11T15:48:52.591Z,97499.50
2022-12-11T15:51:18.997Z,97496.31
2022-12-11T15:53:45.370Z,97505.75
2022-12-11T15:56:15.779Z,97506.50
2022-12-11T15:58:47.372Z,97508.53
2022-12-11T16:01:13.831Z,97503.53
2022-12-11T16:03:40.288Z,97514.25
2022-12-11T16:06:06.803Z,97515.00
2022-12-11T16:08:33.261Z,97517.97
2022-12-11T16:10:59.839Z,97507.31
2022-12-11T16:13:26.231Z,97514.75
2022-12-11T16:15:53.809Z,97511.00
2022-12-11T16:18:21.720Z,97512.28
2022-12-11T16:20:49.361Z,97518.47
2022-12-11T16:23:17.180Z,97515.75
2022-12-11T16:25:45.969Z,97514.22
2022-12-11T16:28:14.850Z,97516.19
2022-12-11T16:30:43.624Z,97517.00
2022-12-11T16:33:13.159Z,97517.25
2022-12-11T16:35:42.834Z,97517.75
2022-12-11T16:38:10.605Z,97513.50
2022-12-11T16:40:37.794Z,97515.25
2022-12-11T16:43:05.109Z,97503.06
2022-12-11T16:45:32.174Z,97508.75
2022-12-11T16:47:58.689Z,97505.06
2022-12-11T16:50:25.910Z,97515.75
2022-12-11T16:52:52.416Z,97507.28
2022-12-11T16:55:22.206Z,97509.25
2022-12-11T16:57:48.879Z,97510.78
2022-12-11T17:00:15.966Z,97509.03
2022-12-11T17:02:42.448Z,97514.78
2022-12-11T17:05:09.210Z,97516.25
2022-12-11T17:07:35.814Z,97519.22
2022-12-11T17:10:03.218Z,97513.47
2022-12-11T17:12:30.452Z,97517.25
2022-12-11T17:14:57.179Z,97515.75
2022-12-11T17:17:23.804Z,97515.28
2022-12-11T17:19:50.344Z,97511.53
2022-12-11T17:22:16.848Z,97520.19
2022-12-11T17:24:43.315Z,97522.47
2022-12-11T17:27:09.775Z,97524.69
2022-12-11T17:29:36.351Z,97521.47
2022-12-11T17:32:03.305Z,97524.75
2022-12-11T17:34:36.156Z,97525.50
2022-12-11T17:37:04.949Z,97524.72
2022-12-11T17:39:31.585Z,97522.97
2022-12-11T17:41:57.952Z,97517.25
2022-12-11T17:44:26.487Z,97514.75
2022-12-11T17:46:53.125Z,97514.28
2022-12-11T17:49:19.974Z,97513.72
2022-12-11T17:51:46.377Z,97519.72
2022-12-11T17:54:12.888Z,97513.72
2022-12-11T17:56:39.532Z,97517.25
2022-12-11T17:59:06.307Z,97520.97
2022-12-11T18:01:33.124Z,97514.53
2022-12-11T18:04:01.731Z,97517.78
2022-12-11T18:06:31.279Z,97516.50
2022-12-11T18:08:58.014Z,97507.31
2022-12-11T18:11:25.043Z,97512.06
2022-12-11T18:13:52.685Z,97513.81
2022-12-11T18:16:21.373Z,97518.75
2022-12-11T18:18:48.786Z,97514.03
2022-12-11T18:21:25.230Z,97516.72
2022-12-11T18:23:51.782Z,97510.53
2022-12-11T18:26:19.410Z,97503.59
2022-12-11T18:28:46.505Z,97507.31
2022-12-11T18:31:13.694Z,97511.03
2022-12-11T18:33:41.941Z,97509.06
2022-12-11T18:36:08.986Z,97510.34
2022-12-11T18:38:36.220Z,97505.38
2022-12-11T18:41:07.542Z,97506.34
2022-12-11T18:43:34.537Z,97498.16
2022-12-11T18:46:05.373Z,97497.19
2022-12-11T18:48:31.818Z,97494.97
2022-12-11T18:50:58.239Z,97502.38
2022-12-11T18:53:24.639Z,97504.13
2022-12-11T18:55:54.551Z,97501.88
2022-12-11T18:58:23.601Z,97506.88
2022-12-11T19:00:50.058Z,97504.88
2022-12-11T19:03:16.468Z,97504.13
2022-12-11T19:05:43.852Z,97507.84
2022-12-11T19:08:12.509Z,97506.84
2022-12-11T19:10:45.039Z,97512.81
2022-12-11T19:13:12.096Z,97507.09
2022-12-11T19:15:43.317Z,97506.13
2022-12-11T19:18:10.620Z,97508.59
2022-12-11T19:20:55.399Z,97515.81
2022-12-11T19:23:29.471Z,97505.63
2022-12-11T19:25:55.862Z,97507.38
2022-12-11T19:28:22.225Z,97507.59
2022-12-11T19:30:49.216Z,97501.63
2022-12-11T19:33:16.480Z,97498.91
2022-12-11T19:35:43.256Z,97504.38
2022-12-11T19:38:10.405Z,97508.38
2022-12-11T19:40:44.588Z,97508.34
2022-12-11T19:43:11.305Z,97512.34
2022-12-11T19:45:37.903Z,97507.84
2022-12-11T19:48:04.600Z,97512.31
2022-12-11T19:50:32.472Z,97510.09
2022-12-11T19:52:58.923Z,97516.31
2022-12-11T19:55:25.751Z,97510.59
2022-12-11T19:57:52.235Z,97513.56
2022-12-11T20:00:19.570Z,97512.81
2022-12-11T20:02:45.979Z,97513.06
2022-12-11T20:05:13.152Z,97497.44
2022-12-11T20:07:40.078Z,97502.88
2022-12-11T20:10:07.219Z,97505.13
2022-12-11T20:12:33.594Z,97496.44
2022-12-11T20:15:00.153Z,97502.63
2022-12-11T20:17:26.577Z,97490.94
2022-12-11T20:19:53.035Z,97497.66
2022-12-11T20:22:19.436Z,97496.91
2022-12-11T20:24:45.821Z,97499.16
2022-12-11T20:27:12.537Z,97505.38
2022-12-11T20:29:39.084Z,97499.44
2022-12-11T20:32:05.618Z,97495.44
2022-12-11T20:34:32.125Z,97492.94
2022-12-11T20:37:00.166Z,97502.38
2022-12-11T20:39:27.057Z,97502.34
2022-12-11T20:41:53.471Z,97497.13
2022-12-11T20:44:20.156Z,97504.81
2022-12-11T20:46:46.569Z,97507.81
2022-12-11T20:49:13.319Z,97498.09
2022-12-11T20:51:40.042Z,97503.78
2022-12-11T20:54:06.515Z,97493.63
2022-12-11T20:56:32.975Z,97495.88
2022-12-11T20:58:59.803Z,97501.63
2022-12-11T21:01:29.792Z,97489.47
2022-12-11T21:03:56.466Z,97499.41
2022-12-11T21:06:31.204Z,97498.16
2022-12-11T21:09:00.274Z,97490.97
2022-12-11T21:11:27.146Z,97486.75
2022-12-11T21:13:53.728Z,97497.69
2022-12-11T21:16:21.306Z,97483.75
2022-12-11T21:18:48.274Z,97487.25
2022-12-11T21:21:15.955Z,97486.78
2022-12-11T21:23:42.448Z,97478.34
2022-12-11T21:26:08.946Z,97480.28
2022-12-11T21:28:35.870Z,97483.50
2022-12-11T21:31:05.464Z,97473.59
2022-12-11T21:33:32.149Z,97475.09
2022-12-11T21:35:59.654Z,97487.25
2022-12-11T21:38:26.883Z,97482.78
2022-12-11T21:40:54.365Z,97483.53
2022-12-11T21:43:20.980Z,97484.00
2022-12-11T21:46:03.982Z,97482.00
2022-12-11T21:48:30.862Z,97475.56
2022-12-11T21:51:08.636Z,97475.31
2022-12-11T21:53:35.427Z,97466.91
2022-12-11T21:56:06.229Z,97464.63
2022-12-11T21:58:32.574Z,97465.88
2022-12-11T22:00:59.100Z,97465.63
2022-12-11T22:03:25.547Z,97471.84
2022-12-11T22:05:51.925Z,97478.56
2022-12-11T22:08:18.335Z,97468.63
2022-12-11T22:10:44.826Z,97475.31
2022-12-11T22:13:11.199Z,97475.81
2022-12-11T22:15:37.690Z,97464.91
2022-12-11T22:18:04.188Z,97471.88
2022-12-11T22:20:30.646Z,97466.13
2022-12-11T22:22:57.301Z,97469.41
2022-12-11T22:25:23.953Z,97468.41
2022-12-11T22:27:50.987Z,97470.41
2022-12-11T22:30:17.455Z,97479.34
2022-12-11T22:32:45.150Z,97479.59
2022-12-11T22:35:12.064Z,97468.41
2022-12-11T22:37:38.788Z,97476.63
2022-12-11T22:40:05.726Z,97478.59
2022-12-11T22:42:32.394Z,97471.38
2022-12-11T22:44:58.757Z,97478.34
2022-12-11T22:47:25.180Z,97476.63
2022-12-11T22:49:51.698Z,97477.38
2022-12-11T22:52:18.074Z,97471.13
2022-12-11T22:54:44.806Z,97469.13
2022-12-11T22:57:11.159Z,97471.84
2022-12-11T22:59:37.575Z,97472.84
2022-12-11T23:02:04.047Z,97471.38
2022-12-11T23:04:30.650Z,97476.88
2022-12-11T23:06:57.121Z,97478.34
2022-12-11T23:09:24.096Z,97479.56
2022-12-11T23:11:51.407Z,97478.81
2022-12-11T23:14:18.660Z,97484.78
2022-12-11T23:16:45.361Z,97481.59
2022-12-11T23:19:12.571Z,97474.81
2022-12-11T23:21:39.112Z,97487.72
2022-12-11T23:24:06.221Z,97483.00
2022-12-11T23:26:33.014Z,97485.28
2022-12-11T23:28:59.698Z,97481.59
2022-12-11T23:31:26.843Z,97482.78
2022-12-11T23:33:53.820Z,97491.22
2022-12-11T23:36:20.315Z,97481.78
2022-12-11T23:38:52.580Z,97483.53
2022-12-11T23:41:21.067Z,97484.75
2022-12-11T23:43:47.430Z,97485.25
2022-12-11T23:46:17.270Z,97487.03
2022-12-11T23:48:43.792Z,97486.03
2022-12-11T23:51:14.119Z,97484.50
2022-12-11T23:53:41.536Z,97489.94
2022-12-11T23:56:11.299Z,97472.06
2022-12-11T23:58:40.861Z,97481.50
